메인 페이지
METAR-TAF:

METAR-TAF

공항 :

Tucumán, 아르헨티나

위도: 26-51S, 경도: 065-06W, 고도: 440m

현재 날씨관측

예보는 19분 전, 14:00시(UTC)에 발표되었습니다.
무풍
온도 29°C
습도 58%
기압 1016 hPa
시정 10km 이상
1500m 미만 상공 구름 및 적란운 없음

METAR: SANT 271400Z 00000KT CAVOK 29/20 Q1016

시각: 11:19 (14:19 UTC)

예보

예보는 3 시간 19분 전, 11:00시(UTC)에 발표되었습니다.
예보 대상 시간: 27일 12시부터 28일 12시까지 (UTC)
북서10kt
시정 10km 이상
1500m 미만 상공 구름 및 적란운 없음
전환 중
27일 15시부터 27일 17시까지 (UTC)
시정 10km 이상
고도 2500ft 상공 구름 많음
고도 4000ft 상공 구름 조금, 적란운.
확률 40%
27일 17시부터 27일 20시까지 (UTC)
남서5kt
시정: 5000m
고도 1000ft 상공 구름 조금
고도 2000ft 상공 흐림
고도 4000ft 상공 구름 조금, 적란운.
뇌우, 비

TAF: SANT 271100Z 2712/2812 32010KT CAVOK TX34/2720Z TN21/2810Z BECMG 2715/2717 36010 9999 BKN025 FEW040CB PROB40 2717/2720 23005KT 5000 TSRA FEW010 OVC020 FEW040CB

4,000개 이상의 공항 관측 자료 및 예보 (METAR 및 TAF 보고).

지도상에서 검색 가능한 기상관측소가 노란 점과 빨간 점으로 표시되어 있습니다.

기상관측소 명을 보려면 표시 위로 마우스를 이동하세요.

날씨 관측과 예보를 보려면 클릭하세요.

지도 변경 : 확대하려면 엑스 표시가 있는 녹색 버튼, 축소하려면 빼기 표시가 있는 녹색 버튼, 다음 페이지의 지도를 보려면 녹색 화살표를 클릭하세요.


METAR-TAF: